Time;durP1;ratioP1;P1;durP2;ratioP2;P2;SDS_P1;SDS_P2;PMS_P1;PMS_P2;Temp;Humidity;BMP_temperature;BMP_pressure;BME280_temperature;BME280_humidity;BME280_pressure;Samples;Min_cycle;Max_cycle;Signal;HPM_P1;HPM_P2
2023/10/03 00:02:03;;;;;;;20.85;8.57;;;;;;;;;;4963574;28;20067;-83
2023/10/03 00:04:28;;;;;;;19.50;6.88;;;;;;;;;;4957753;28;20081;-84
2023/10/03 00:06:54;;;;;;;18.23;8.38;;;;;;;;;;4961968;28;20034;-83
2023/10/03 00:09:19;;;;;;;24.10;8.32;;;;;;;;;;4957285;28;20471;-84
2023/10/03 00:11:44;;;;;;;19.83;9.15;;;;;;;;;;4958044;28;20455;-84
2023/10/03 00:14:11;;;;;;;20.80;8.20;;;;;;;;;;4961173;28;20031;-83
2023/10/03 00:16:37;;;;;;;22.33;8.35;;;;;;;;;;4954570;28;20050;-84
2023/10/03 00:19:03;;;;;;;26.02;8.30;;;;;;;;;;4963795;28;20062;-84
2023/10/03 00:21:28;;;;;;;19.02;7.07;;;;;;;;;;4959924;28;20046;-84
2023/10/03 00:23:54;;;;;;;20.88;8.80;;;;;;;;;;4958149;28;20022;-84
2023/10/03 00:26:22;;;;;;;24.92;9.25;;;;;;;;;;4968616;28;20551;-84
2023/10/03 00:28:51;;;;;;;25.38;9.07;;;;;;;;;;4960701;28;20035;-84
2023/10/03 00:31:17;;;;;;;20.65;8.25;;;;;;;;;;4963028;28;20044;-84
2023/10/03 00:33:42;;;;;;;20.60;8.10;;;;;;;;;;4959872;28;20031;-83
2023/10/03 00:36:25;;;;;;;22.15;8.38;;;;;;;;;;4969394;28;20559;-83
2023/10/03 00:38:51;;;;;;;18.27;7.65;;;;;;;;;;4972351;28;20043;-83
2023/10/03 00:41:19;;;;;;;22.95;9.38;;;;;;;;;;4963860;28;20038;-83
2023/10/03 00:43:56;;;;;;;26.08;9.65;;;;;;;;;;4959914;28;20031;-84
2023/10/03 00:46:22;;;;;;;21.08;8.50;;;;;;;;;;4969341;28;20762;-83
2023/10/03 00:48:47;;;;;;;26.52;9.50;;;;;;;;;;4965837;28;21263;-84
2023/10/03 00:51:14;;;;;;;21.58;8.48;;;;;;;;;;4960596;28;20046;-84
2023/10/03 00:53:40;;;;;;;27.90;8.73;;;;;;;;;;4958477;28;20397;-83
2023/10/03 00:56:11;;;;;;;23.20;8.63;;;;;;;;;;4960938;28;20034;-83
2023/10/03 00:58:37;;;;;;;23.30;8.32;;;;;;;;;;4958708;28;20110;-84
2023/10/03 01:01:03;;;;;;;17.85;8.10;;;;;;;;;;4966671;28;20066;-84
2023/10/03 01:03:37;;;;;;;31.02;9.32;;;;;;;;;;4964194;28;20123;-84
2023/10/03 01:06:09;;;;;;;26.13;8.38;;;;;;;;;;4961905;28;20035;-83
2023/10/03 01:08:55;;;;;;;26.92;9.05;;;;;;;;;;4967736;28;20081;-83
2023/10/03 01:11:22;;;;;;;20.30;8.48;;;;;;;;;;4965136;28;21019;-84
2023/10/03 01:13:54;;;;;;;23.48;8.98;;;;;;;;;;4963000;28;20112;-84
2023/10/03 01:16:30;;;;;;;26.42;8.07;;;;;;;;;;4971499;28;20089;-84
2023/10/03 01:19:07;;;;;;;18.60;8.00;;;;;;;;;;4962966;28;20058;-84
2023/10/03 01:21:32;;;;;;;18.48;8.02;;;;;;;;;;4964685;28;20084;-84
2023/10/03 01:23:59;;;;;;;24.38;8.95;;;;;;;;;;4964111;28;20109;-85
2023/10/03 01:26:24;;;;;;;23.00;8.25;;;;;;;;;;4967454;28;20021;-86
2023/10/03 01:28:50;;;;;;;18.70;8.90;;;;;;;;;;4970022;28;20031;-84
2023/10/03 01:31:15;;;;;;;25.30;9.43;;;;;;;;;;4961885;28;20027;-84
2023/10/03 01:33:40;;;;;;;25.83;8.98;;;;;;;;;;4981839;28;20044;-84
2023/10/03 01:36:06;;;;;;;20.15;8.73;;;;;;;;;;4955554;28;20038;-83
2023/10/03 01:38:31;;;;;;;25.15;10.85;;;;;;;;;;4967029;28;20027;-84
2023/10/03 01:40:58;;;;;;;21.98;9.05;;;;;;;;;;4956445;28;20030;-85
2023/10/03 01:43:23;;;;;;;21.50;7.55;;;;;;;;;;4965476;28;20038;-85
2023/10/03 01:45:50;;;;;;;20.73;7.78;;;;;;;;;;4964869;28;20142;-84
2023/10/03 01:48:17;;;;;;;21.98;8.95;;;;;;;;;;4971917;28;20026;-84
2023/10/03 01:50:42;;;;;;;23.48;7.70;;;;;;;;;;4971768;28;20020;-84
2023/10/03 01:53:07;;;;;;;20.65;9.32;;;;;;;;;;4977364;28;20031;-83
2023/10/03 01:55:33;;;;;;;22.35;7.90;;;;;;;;;;4973989;28;20023;-84
2023/10/03 01:57:59;;;;;;;24.30;8.82;;;;;;;;;;4972761;28;20027;-84
2023/10/03 02:02:57;;;;;;;21.08;7.30;;;;;;;;;;4977723;28;20290;-85
2023/10/03 02:05:27;;;;;;;21.35;8.73;;;;;;;;;;4966257;28;21513;-85
2023/10/03 02:07:57;;;;;;;18.98;8.70;;;;;;;;;;4964845;28;20084;-85
2023/10/03 02:10:23;;;;;;;22.50;8.68;;;;;;;;;;4970944;28;20574;-85
2023/10/03 02:12:49;;;;;;;21.52;8.75;;;;;;;;;;4962478;28;20047;-84
2023/10/03 02:15:24;;;;;;;25.55;9.20;;;;;;;;;;4961624;28;20027;-84
2023/10/03 02:17:52;;;;;;;18.17;7.85;;;;;;;;;;4966380;28;20028;-84
2023/10/03 02:20:20;;;;;;;22.13;8.77;;;;;;;;;;4969207;28;20031;-85
2023/10/03 02:22:59;;;;;;;21.88;7.97;;;;;;;;;;4964672;28;20053;-83
2023/10/03 02:25:26;;;;;;;21.55;7.55;;;;;;;;;;4975200;28;20027;-85
2023/10/03 02:27:53;;;;;;;18.98;6.78;;;;;;;;;;4966098;28;20431;-84
2023/10/03 02:30:25;;;;;;;20.60;8.45;;;;;;;;;;4964731;28;20933;-84
2023/10/03 02:32:57;;;;;;;15.95;7.70;;;;;;;;;;4965660;28;20106;-84
2023/10/03 02:35:24;;;;;;;20.35;7.55;;;;;;;;;;4961563;28;20038;-84
2023/10/03 02:37:56;;;;;;;16.35;6.88;;;;;;;;;;4970031;28;20056;-85
2023/10/03 02:40:22;;;;;;;18.58;7.15;;;;;;;;;;5003440;23;20046;-83
2023/10/03 02:42:50;;;;;;;17.85;7.43;;;;;;;;;;5039289;28;20120;-83
2023/10/03 02:45:17;;;;;;;18.25;7.65;;;;;;;;;;5030220;28;20514;-84
2023/10/03 02:47:43;;;;;;;17.85;7.10;;;;;;;;;;5035220;28;20024;-84
2023/10/03 02:50:12;;;;;;;16.92;6.85;;;;;;;;;;5045858;28;20097;-84
2023/10/03 02:52:37;;;;;;;17.15;6.88;;;;;;;;;;5055170;28;20025;-85
2023/10/03 02:55:03;;;;;;;16.15;7.40;;;;;;;;;;5057910;28;20035;-85
2023/10/03 02:57:29;;;;;;;18.95;7.93;;;;;;;;;;5054967;28;20064;-84
2023/10/03 02:59:55;;;;;;;16.05;6.95;;;;;;;;;;5043494;28;20572;-85
2023/10/03 03:02:21;;;;;;;19.83;7.55;;;;;;;;;;5040694;28;20494;-84
2023/10/03 03:04:46;;;;;;;20.60;7.30;;;;;;;;;;5054500;28;20108;-84
2023/10/03 03:07:12;;;;;;;26.40;8.48;;;;;;;;;;5051761;28;20147;-83
2023/10/03 03:09:40;;;;;;;21.83;7.35;;;;;;;;;;5052995;28;20020;-84
2023/10/03 03:12:06;;;;;;;19.95;8.20;;;;;;;;;;5061626;28;20029;-84
2023/10/03 03:14:31;;;;;;;21.90;7.85;;;;;;;;;;5048992;28;20017;-83
2023/10/03 03:16:57;;;;;;;20.48;7.90;;;;;;;;;;5054993;28;20363;-83
2023/10/03 03:19:23;;;;;;;16.77;6.85;;;;;;;;;;5038870;28;20384;-83
2023/10/03 03:21:50;;;;;;;20.10;7.60;;;;;;;;;;5057256;28;20025;-83
2023/10/03 03:24:17;;;;;;;17.38;7.10;;;;;;;;;;5053198;28;20643;-83
2023/10/03 03:26:47;;;;;;;16.02;7.00;;;;;;;;;;5054086;28;20140;-83
2023/10/03 03:29:22;;;;;;;20.40;7.55;;;;;;;;;;5027252;28;20446;-83
2023/10/03 03:31:49;;;;;;;21.33;7.78;;;;;;;;;;5055383;28;20031;-82
2023/10/03 03:34:15;;;;;;;17.00;7.10;;;;;;;;;;5058305;28;20052;-83
2023/10/03 03:36:40;;;;;;;22.67;7.30;;;;;;;;;;5051716;28;20028;-83
2023/10/03 03:39:15;;;;;;;14.38;6.45;;;;;;;;;;5062784;28;20047;-83
2023/10/03 03:41:42;;;;;;;13.38;6.22;;;;;;;;;;5064157;28;20024;-83
2023/10/03 03:44:13;;;;;;;19.02;6.75;;;;;;;;;;5072716;28;20036;-83
2023/10/03 03:46:43;;;;;;;19.45;6.75;;;;;;;;;;5063513;28;20036;-83
2023/10/03 03:49:08;;;;;;;17.58;7.38;;;;;;;;;;5061324;28;20040;-83
2023/10/03 03:51:34;;;;;;;19.27;7.22;;;;;;;;;;5057719;28;20017;-83
2023/10/03 03:54:00;;;;;;;18.98;7.72;;;;;;;;;;5053689;28;20514;-83
2023/10/03 03:56:25;;;;;;;15.93;7.32;;;;;;;;;;5060273;28;20028;-83
2023/10/03 03:58:51;;;;;;;17.23;7.15;;;;;;;;;;5059114;28;20467;-83
2023/10/03 04:01:19;;;;;;;13.93;6.28;;;;;;;;;;5039279;28;20115;-83
2023/10/03 04:03:45;;;;;;;17.55;7.43;;;;;;;;;;5049658;28;20017;-83
2023/10/03 04:06:11;;;;;;;21.00;7.75;;;;;;;;;;5052824;28;20395;-83
2023/10/03 04:08:38;;;;;;;17.70;6.85;;;;;;;;;;5052116;28;20017;-83
2023/10/03 04:11:07;;;;;;;20.83;7.20;;;;;;;;;;5051041;28;20029;-83
2023/10/03 04:13:38;;;;;;;15.30;6.60;;;;;;;;;;5044083;28;20624;-83
2023/10/03 04:16:06;;;;;;;23.65;6.72;;;;;;;;;;5051923;28;20028;-83
2023/10/03 04:18:37;;;;;;;15.88;7.18;;;;;;;;;;5058365;28;20103;-83
2023/10/03 04:21:04;;;;;;;21.10;8.23;;;;;;;;;;5057390;28;20025;-83
2023/10/03 04:23:30;;;;;;;14.40;6.47;;;;;;;;;;5033974;28;20100;-83
2023/10/03 04:25:56;;;;;;;20.55;7.47;;;;;;;;;;5054934;28;20506;-82
2023/10/03 04:28:21;;;;;;;22.13;8.00;;;;;;;;;;5050285;28;20085;-83
2023/10/03 04:30:49;;;;;;;21.33;7.97;;;;;;;;;;5052216;28;20116;-83
2023/10/03 04:33:20;;;;;;;21.17;7.20;;;;;;;;;;5051032;28;20371;-83
2023/10/03 04:35:46;;;;;;;16.37;7.07;;;;;;;;;;5056212;28;20141;-83
2023/10/03 04:38:14;;;;;;;19.50;7.43;;;;;;;;;;5055531;28;20032;-83
2023/10/03 04:40:40;;;;;;;16.92;7.40;;;;;;;;;;5033867;28;20025;-83
2023/10/03 04:43:11;;;;;;;19.05;7.57;;;;;;;;;;5032882;28;20029;-83
2023/10/03 04:45:37;;;;;;;22.17;8.50;;;;;;;;;;5041153;28;20017;-83
2023/10/03 04:48:03;;;;;;;19.63;7.97;;;;;;;;;;5053901;28;20460;-83
2023/10/03 04:50:29;;;;;;;24.33;7.32;;;;;;;;;;5051415;28;20100;-83
2023/10/03 04:52:54;;;;;;;17.48;7.95;;;;;;;;;;5052084;28;20029;-83
2023/10/03 04:55:22;;;;;;;20.88;7.30;;;;;;;;;;5047663;28;20031;-83
2023/10/03 04:57:49;;;;;;;20.42;7.32;;;;;;;;;;5035811;28;20032;-83
2023/10/03 05:00:16;;;;;;;17.52;6.90;;;;;;;;;;5051340;28;20021;-82
2023/10/03 05:02:49;;;;;;;23.20;7.95;;;;;;;;;;5048781;28;20029;-83
2023/10/03 05:05:20;;;;;;;15.68;6.13;;;;;;;;;;5050385;28;20049;-83
2023/10/03 05:07:47;;;;;;;14.88;6.25;;;;;;;;;;5052076;28;20048;-83
2023/10/03 05:10:13;;;;;;;15.43;6.55;;;;;;;;;;5043249;28;20021;-84
2023/10/03 05:12:39;;;;;;;18.75;7.40;;;;;;;;;;5067123;28;20030;-83
2023/10/03 05:15:07;;;;;;;21.17;6.90;;;;;;;;;;5052106;28;20029;-83
2023/10/03 05:17:36;;;;;;;14.77;5.93;;;;;;;;;;5047168;28;20502;-83
2023/10/03 05:20:03;;;;;;;17.05;7.03;;;;;;;;;;5057829;28;20096;-83
2023/10/03 05:22:31;;;;;;;15.50;6.68;;;;;;;;;;5055226;28;20107;-83
2023/10/03 05:24:57;;;;;;;16.27;7.55;;;;;;;;;;5063680;28;20029;-83
2023/10/03 05:27:48;;;;;;;20.33;7.53;;;;;;;;;;5040516;28;20056;-84
2023/10/03 05:30:34;;;;;;;15.20;6.38;;;;;;;;;;5048058;28;20025;-83
2023/10/03 05:32:59;;;;;;;15.30;6.18;;;;;;;;;;5034428;28;20060;-84
2023/10/03 05:35:26;;;;;;;15.13;5.60;;;;;;;;;;5050272;28;20060;-83
2023/10/03 05:37:51;;;;;;;18.00;7.20;;;;;;;;;;5052376;28;20029;-83
2023/10/03 05:40:19;;;;;;;18.77;7.13;;;;;;;;;;5053954;28;20044;-83
2023/10/03 05:42:45;;;;;;;21.95;7.85;;;;;;;;;;5055080;28;20026;-83
2023/10/03 05:45:15;;;;;;;14.23;6.05;;;;;;;;;;5050442;28;20494;-84
2023/10/03 05:47:47;;;;;;;14.80;5.65;;;;;;;;;;5054814;28;20032;-84
2023/10/03 05:50:17;;;;;;;14.50;6.70;;;;;;;;;;5053036;28;20522;-83
2023/10/03 05:52:46;;;;;;;17.73;7.05;;;;;;;;;;5050425;28;20017;-83
2023/10/03 05:55:12;;;;;;;15.35;5.88;;;;;;;;;;5047793;28;20087;-83
2023/10/03 05:57:41;;;;;;;13.90;6.32;;;;;;;;;;5053299;28;20024;-83
2023/10/03 06:00:09;;;;;;;11.40;5.97;;;;;;;;;;5051029;28;20033;-83
2023/10/03 06:02:39;;;;;;;14.82;5.18;;;;;;;;;;5046678;28;20100;-83
2023/10/03 06:05:06;;;;;;;12.10;5.00;;;;;;;;;;5058472;28;20071;-83
2023/10/03 06:07:32;;;;;;;9.80;4.57;;;;;;;;;;5052122;28;20032;-82
2023/10/03 06:09:58;;;;;;;9.15;3.78;;;;;;;;;;5052494;28;20025;-83
2023/10/03 06:12:23;;;;;;;8.00;4.22;;;;;;;;;;5056060;28;20107;-83
2023/10/03 06:14:49;;;;;;;6.80;3.20;;;;;;;;;;5055714;28;20040;-83
2023/10/03 06:17:17;;;;;;;8.60;3.70;;;;;;;;;;5036108;28;20024;-83
2023/10/03 06:19:42;;;;;;;7.10;3.38;;;;;;;;;;5060366;28;20036;-83
2023/10/03 06:22:08;;;;;;;7.45;3.17;;;;;;;;;;5065492;28;20195;-84
2023/10/03 06:25:26;;;;;;;8.25;3.60;;;;;;;;;;5064073;28;20032;-84
2023/10/03 06:27:52;;;;;;;8.90;3.38;;;;;;;;;;5044401;28;20075;-84
2023/10/03 06:30:20;;;;;;;8.60;3.78;;;;;;;;;;5059605;28;20036;-84
2023/10/03 06:32:46;;;;;;;7.65;3.22;;;;;;;;;;5057067;28;20017;-84
2023/10/03 06:35:12;;;;;;;9.57;4.18;;;;;;;;;;5053270;28;20028;-84
2023/10/03 06:37:42;;;;;;;16.17;6.40;;;;;;;;;;5057546;28;20051;-84
2023/10/03 06:40:27;;;;;;;12.25;5.13;;;;;;;;;;5038055;28;20049;-84
2023/10/03 06:42:54;;;;;;;9.07;4.55;;;;;;;;;;5054694;28;20066;-84
2023/10/03 06:45:21;;;;;;;10.25;4.60;;;;;;;;;;5055414;28;20027;-84
2023/10/03 06:47:49;;;;;;;11.32;4.82;;;;;;;;;;5060754;28;20028;-84
2023/10/03 06:50:15;;;;;;;9.30;4.00;;;;;;;;;;5054692;28;20575;-84
2023/10/03 06:52:40;;;;;;;10.05;4.45;;;;;;;;;;5055592;28;20021;-84
2023/10/03 06:55:06;;;;;;;8.95;4.20;;;;;;;;;;5040888;28;20021;-84
2023/10/03 06:57:32;;;;;;;12.13;5.22;;;;;;;;;;5055858;28;20028;-84
2023/10/03 06:59:57;;;;;;;9.88;4.50;;;;;;;;;;5056656;28;20013;-85
2023/10/03 07:02:23;;;;;;;8.90;4.78;;;;;;;;;;5058308;28;20037;-85
2023/10/03 07:04:48;;;;;;;10.98;4.88;;;;;;;;;;5057516;28;20025;-84
2023/10/03 07:07:13;;;;;;;11.10;4.47;;;;;;;;;;5059491;28;20021;-84
2023/10/03 07:09:39;;;;;;;8.02;3.90;;;;;;;;;;5053919;28;20020;-85
2023/10/03 07:12:08;;;;;;;11.38;4.70;;;;;;;;;;5051781;28;20031;-85
2023/10/03 07:14:37;;;;;;;10.13;4.35;;;;;;;;;;5058750;28;20047;-85
2023/10/03 07:17:03;;;;;;;8.38;4.15;;;;;;;;;;5035398;28;20499;-84
2023/10/03 07:19:30;;;;;;;9.65;4.30;;;;;;;;;;5060124;28;20037;-85
2023/10/03 07:21:55;;;;;;;7.95;4.30;;;;;;;;;;5053915;28;20044;-85
2023/10/03 07:24:21;;;;;;;8.65;4.30;;;;;;;;;;5055350;28;20028;-85
2023/10/03 07:26:46;;;;;;;9.38;4.53;;;;;;;;;;5057774;28;20028;-85
2023/10/03 07:29:12;;;;;;;6.00;2.92;;;;;;;;;;5060286;28;20086;-85
2023/10/03 07:31:38;;;;;;;6.75;3.50;;;;;;;;;;5056424;28;20021;-85
2023/10/03 07:34:03;;;;;;;7.80;3.20;;;;;;;;;;5057248;28;20028;-85
2023/10/03 07:36:28;;;;;;;5.13;3.00;;;;;;;;;;5052843;28;20071;-85
2023/10/03 07:38:54;;;;;;;6.57;3.35;;;;;;;;;;5059596;28;21002;-84
2023/10/03 07:41:21;;;;;;;5.93;3.22;;;;;;;;;;5057801;28;20047;-84
2023/10/03 07:43:52;;;;;;;4.63;2.75;;;;;;;;;;5049771;28;20044;-84
2023/10/03 07:46:20;;;;;;;4.97;2.80;;;;;;;;;;5054093;28;20029;-85
2023/10/03 07:48:45;;;;;;;6.22;3.25;;;;;;;;;;5050100;28;20070;-84
2023/10/03 07:51:17;;;;;;;4.78;2.67;;;;;;;;;;5054277;28;20028;-84
2023/10/03 07:53:43;;;;;;;6.22;3.10;;;;;;;;;;5056468;28;20025;-84
2023/10/03 07:56:31;;;;;;;7.80;3.30;;;;;;;;;;5054670;28;20054;-85
2023/10/03 07:59:01;;;;;;;5.30;3.28;;;;;;;;;;5052206;28;20028;-84
2023/10/03 08:01:27;;;;;;;6.07;3.05;;;;;;;;;;5039776;28;20037;-84
2023/10/03 08:03:54;;;;;;;6.30;2.85;;;;;;;;;;5032539;28;20469;-84
2023/10/03 08:06:24;;;;;;;6.10;3.25;;;;;;;;;;5018891;28;20135;-84
2023/10/03 08:08:53;;;;;;;6.00;2.78;;;;;;;;;;5049370;28;20021;-85
2023/10/03 08:11:28;;;;;;;6.10;2.90;;;;;;;;;;5049047;28;20045;-85
2023/10/03 08:13:58;;;;;;;5.60;3.10;;;;;;;;;;5053315;28;20037;-83
2023/10/03 08:16:25;;;;;;;4.75;3.03;;;;;;;;;;5049709;28;20110;-84
2023/10/03 08:18:57;;;;;;;6.97;3.50;;;;;;;;;;5036382;28;20029;-83
2023/10/03 08:21:29;;;;;;;4.22;3.20;;;;;;;;;;5054164;28;20676;-84
2023/10/03 08:23:58;;;;;;;6.13;3.03;;;;;;;;;;5055586;28;20032;-84
2023/10/03 08:26:27;;;;;;;5.80;3.00;;;;;;;;;;5052395;28;20032;-84
2023/10/03 08:28:59;;;;;;;5.82;2.95;;;;;;;;;;5055223;28;20021;-84
2023/10/03 08:31:28;;;;;;;6.40;3.08;;;;;;;;;;5056039;28;20112;-85
2023/10/03 08:33:56;;;;;;;6.07;3.05;;;;;;;;;;5054274;28;20095;-84
2023/10/03 08:36:23;;;;;;;5.35;2.58;;;;;;;;;;5054510;28;20036;-84
2023/10/03 08:38:49;;;;;;;6.13;2.80;;;;;;;;;;5056015;28;20029;-84
2023/10/03 08:41:28;;;;;;;5.75;3.05;;;;;;;;;;5068845;22;20036;-86
2023/10/03 08:43:55;;;;;;;3.47;2.45;;;;;;;;;;5066527;28;20473;-86
2023/10/03 08:46:28;;;;;;;6.38;3.00;;;;;;;;;;5070476;28;20046;-88
2023/10/03 08:49:00;;;;;;;7.15;2.72;;;;;;;;;;5057713;28;20104;-87
2023/10/03 08:51:32;;;;;;;5.55;2.58;;;;;;;;;;5055616;28;20925;-85
2023/10/03 08:54:09;;;;;;;4.70;3.00;;;;;;;;;;5054722;28;20078;-87
2023/10/03 08:56:39;;;;;;;7.03;3.25;;;;;;;;;;5056582;28;20036;-88
2023/10/03 08:59:09;;;;;;;5.63;2.75;;;;;;;;;;5051644;28;20021;-86
2023/10/03 09:01:43;;;;;;;6.97;2.75;;;;;;;;;;5053543;28;20039;-88
2023/10/03 09:04:18;;;;;;;6.00;2.45;;;;;;;;;;5052134;28;20052;-87
2023/10/03 09:06:46;;;;;;;4.78;2.60;;;;;;;;;;5057827;28;20482;-86
2023/10/03 09:09:13;;;;;;;5.05;2.95;;;;;;;;;;5059038;28;20020;-87
2023/10/03 09:11:51;;;;;;;9.98;2.60;;;;;;;;;;5050903;28;20496;-88
2023/10/03 09:14:20;;;;;;;4.57;2.85;;;;;;;;;;5058685;28;20028;-88
2023/10/03 09:16:53;;;;;;;4.75;2.55;;;;;;;;;;5062122;28;20506;-89
2023/10/03 09:19:23;;;;;;;4.10;2.67;;;;;;;;;;5059104;28;20036;-89
2023/10/03 09:21:55;;;;;;;8.25;2.53;;;;;;;;;;5062655;28;20016;-87
2023/10/03 09:24:21;;;;;;;;;;;;;;;;;;5032094;28;20051;-85
2023/10/03 09:26:54;;;;;;;5.22;2.90;;;;;;;;;;5060827;28;20431;-85
2023/10/03 09:29:32;;;;;;;5.95;3.25;;;;;;;;;;5051125;28;20036;-86
2023/10/03 09:32:24;;;;;;;3.75;2.50;;;;;;;;;;5056907;28;20028;-89
2023/10/03 09:34:56;;;;;;;4.80;2.53;;;;;;;;;;5060096;28;20039;-86
2023/10/03 09:37:28;;;;;;;6.30;3.08;;;;;;;;;;5059986;28;20040;-89
2023/10/03 09:40:16;;;;;;;5.40;2.83;;;;;;;;;;5052062;28;20025;-89
2023/10/03 09:42:48;;;;;;;5.03;2.70;;;;;;;;;;5051968;28;20020;-88
2023/10/03 09:45:17;;;;;;;5.78;2.90;;;;;;;;;;5057650;28;20341;-88
2023/10/03 09:47:43;;;;;;;4.45;2.63;;;;;;;;;;5055771;28;20557;-88
2023/10/03 09:50:09;;;;;;;4.43;2.17;;;;;;;;;;5055543;28;20020;-87
2023/10/03 09:52:37;;;;;;;5.38;3.10;;;;;;;;;;5051400;28;20025;-86
2023/10/03 09:55:25;;;;;;;5.07;2.75;;;;;;;;;;5056544;28;20395;-87
2023/10/03 09:57:54;;;;;;;5.22;2.85;;;;;;;;;;5054539;28;20072;-84
2023/10/03 10:00:38;;;;;;;6.15;2.60;;;;;;;;;;5057358;28;20048;-90
2023/10/03 10:03:09;;;;;;;4.47;2.80;;;;;;;;;;5052332;28;20025;-88
2023/10/03 10:05:39;;;;;;;4.55;2.70;;;;;;;;;;5054151;28;20253;-86
2023/10/03 10:08:29;;;;;;;5.68;2.90;;;;;;;;;;5060878;28;20119;-88
2023/10/03 10:11:11;;;;;;;5.97;2.88;;;;;;;;;;5067231;28;20115;-87
2023/10/03 10:13:37;;;;;;;4.50;2.72;;;;;;;;;;5057091;28;20045;-87
2023/10/03 10:16:35;;;;;;;6.65;2.47;;;;;;;;;;5039869;28;20032;-87
2023/10/03 10:18:55;;;;;;;;;;;;;;;;;;5057680;28;20037;-84
2023/10/03 10:21:48;;;;;;;4.28;2.50;;;;;;;;;;5069498;28;20275;-82
2023/10/03 10:24:16;;;;;;;4.22;2.65;;;;;;;;;;5058630;28;20040;-84
2023/10/03 10:26:59;;;;;;;4.35;2.70;;;;;;;;;;5064741;28;20538;-81
2023/10/03 10:29:31;;;;;;;5.13;2.58;;;;;;;;;;5069436;28;20398;-83
2023/10/03 10:32:17;;;;;;;3.15;2.47;;;;;;;;;;5040190;28;20225;-83
2023/10/03 10:34:46;;;;;;;4.10;2.50;;;;;;;;;;5064353;28;20028;-82
2023/10/03 10:37:17;;;;;;;6.47;3.05;;;;;;;;;;5069040;28;20063;-84
2023/10/03 10:40:09;;;;;;;3.95;2.70;;;;;;;;;;5067261;28;20027;-82
2023/10/03 10:42:59;;;;;;;3.95;2.40;;;;;;;;;;5065535;28;20514;-80
2023/10/03 10:45:43;;;;;;;7.05;3.13;;;;;;;;;;5064761;28;20045;-82
2023/10/03 10:48:09;;;;;;;5.28;2.97;;;;;;;;;;5065189;28;20020;-82
2023/10/03 10:51:12;;;;;;;5.80;2.97;;;;;;;;;;5066538;28;20036;-82
2023/10/03 10:53:46;;;;;;;7.03;2.55;;;;;;;;;;5059109;28;20043;-83
2023/10/03 10:56:13;;;;;;;4.60;2.90;;;;;;;;;;5063788;28;20118;-83
2023/10/03 10:58:47;;;;;;;6.60;2.72;;;;;;;;;;5072716;28;20040;-83
2023/10/03 11:01:13;;;;;;;5.47;3.40;;;;;;;;;;5076019;28;20040;-83
2023/10/03 11:03:40;;;;;;;3.35;2.40;;;;;;;;;;5072516;28;20094;-82
2023/10/03 11:06:15;;;;;;;3.13;2.55;;;;;;;;;;5061875;28;20087;-80
2023/10/03 11:08:58;;;;;;;3.70;2.33;;;;;;;;;;5065968;28;20042;-83
2023/10/03 11:11:35;;;;;;;8.48;3.03;;;;;;;;;;5072097;28;20032;-81
2023/10/03 11:14:01;;;;;;;6.25;2.50;;;;;;;;;;5069917;28;20025;-82
2023/10/03 11:16:27;;;;;;;4.57;2.67;;;;;;;;;;5072683;28;20407;-82
2023/10/03 11:18:59;;;;;;;7.80;2.72;;;;;;;;;;5067122;28;20039;-81
2023/10/03 11:21:25;;;;;;;6.47;3.03;;;;;;;;;;5071255;28;20118;-83
2023/10/03 11:24:13;;;;;;;3.58;2.60;;;;;;;;;;5062358;28;20064;-83
2023/10/03 11:26:42;;;;;;;7.10;2.63;;;;;;;;;;5063221;28;20032;-83
2023/10/03 11:29:07;;;;;;;5.57;2.92;;;;;;;;;;5073243;28;20051;-82
2023/10/03 11:31:42;;;;;;;5.03;2.80;;;;;;;;;;5068399;28;20063;-81
2023/10/03 11:34:08;;;;;;;4.88;3.13;;;;;;;;;;5067387;28;20110;-82
2023/10/03 11:37:00;;;;;;;5.68;2.80;;;;;;;;;;5071660;28;20036;-81
2023/10/03 11:39:27;;;;;;;5.25;3.05;;;;;;;;;;5002775;28;20094;-82
2023/10/03 11:41:52;;;;;;;6.15;2.90;;;;;;;;;;5063117;28;20071;-82
2023/10/03 11:44:21;;;;;;;4.70;2.75;;;;;;;;;;5070811;28;20036;-82
2023/10/03 11:46:48;;;;;;;3.80;2.58;;;;;;;;;;5069645;28;20078;-82
2023/10/03 11:49:17;;;;;;;5.57;2.83;;;;;;;;;;5065708;28;20029;-82
2023/10/03 11:51:43;;;;;;;7.00;2.78;;;;;;;;;;5065299;28;20473;-82
2023/10/03 11:54:10;;;;;;;5.25;3.10;;;;;;;;;;5067376;28;20403;-82
2023/10/03 11:56:43;;;;;;;4.15;2.40;;;;;;;;;;5066061;28;20392;-82
2023/10/03 11:59:16;;;;;;;6.13;2.90;;;;;;;;;;5061887;28;20025;-81
2023/10/03 12:01:56;;;;;;;6.28;2.80;;;;;;;;;;5063615;28;20024;-82
2023/10/03 12:04:26;;;;;;;7.18;2.83;;;;;;;;;;5057242;28;20170;-81
2023/10/03 12:06:51;;;;;;;6.75;2.92;;;;;;;;;;5075619;28;20119;-82
2023/10/03 12:09:20;;;;;;;5.22;2.65;;;;;;;;;;5066967;28;20068;-81
2023/10/03 12:11:45;;;;;;;4.18;2.83;;;;;;;;;;5071021;28;20024;-83
2023/10/03 12:14:14;;;;;;;5.00;2.72;;;;;;;;;;5071684;28;20036;-83
2023/10/03 12:16:39;;;;;;;4.10;2.90;;;;;;;;;;5067157;28;20017;-82
2023/10/03 12:19:05;;;;;;;5.90;3.05;;;;;;;;;;5069077;28;20032;-82
2023/10/03 12:21:34;;;;;;;4.78;2.58;;;;;;;;;;5067980;28;20509;-82
2023/10/03 12:24:01;;;;;;;5.38;2.85;;;;;;;;;;5044022;28;20399;-86
2023/10/03 12:26:26;;;;;;;4.90;2.88;;;;;;;;;;5059771;28;20044;-87
2023/10/03 12:28:52;;;;;;;5.63;2.88;;;;;;;;;;5071139;28;20028;-86
2023/10/03 12:31:25;;;;;;;7.38;3.05;;;;;;;;;;5076737;28;20070;-85
2023/10/03 12:33:51;;;;;;;4.32;3.03;;;;;;;;;;5064476;28;20055;-87
2023/10/03 12:36:17;;;;;;;5.32;2.80;;;;;;;;;;5066813;28;20120;-86
2023/10/03 12:38:42;;;;;;;10.18;3.40;;;;;;;;;;5057069;28;20059;-84
2023/10/03 12:41:09;;;;;;;4.35;2.58;;;;;;;;;;5035090;28;20037;-87
2023/10/03 12:43:39;;;;;;;6.57;3.25;;;;;;;;;;5065933;28;20024;-86
2023/10/03 12:46:06;;;;;;;4.95;2.95;;;;;;;;;;5069643;28;20021;-85
2023/10/03 12:48:32;;;;;;;4.38;2.75;;;;;;;;;;5044201;28;20104;-85
2023/10/03 12:50:58;;;;;;;5.43;2.90;;;;;;;;;;5052003;28;20032;-84
2023/10/03 12:53:23;;;;;;;7.45;2.88;;;;;;;;;;5039142;28;20036;-86
2023/10/03 12:55:49;;;;;;;5.03;2.80;;;;;;;;;;5056275;28;20036;-85
2023/10/03 12:58:18;;;;;;;6.53;3.10;;;;;;;;;;5063319;28;20021;-86
2023/10/03 13:00:45;;;;;;;7.68;3.45;;;;;;;;;;5065632;28;20029;-85
2023/10/03 13:03:10;;;;;;;5.95;3.85;;;;;;;;;;5057542;28;20064;-85
2023/10/03 13:05:36;;;;;;;7.57;3.25;;;;;;;;;;5055860;28;20036;-84
2023/10/03 13:08:02;;;;;;;4.82;2.70;;;;;;;;;;5063886;28;20248;-85
2023/10/03 13:10:28;;;;;;;7.75;3.35;;;;;;;;;;5067209;28;20089;-83
2023/10/03 13:12:57;;;;;;;5.82;2.97;;;;;;;;;;5050510;28;20032;-87
2023/10/03 13:15:26;;;;;;;7.13;3.72;;;;;;;;;;5055285;28;20028;-87
2023/10/03 13:18:01;;;;;;;3.90;2.78;;;;;;;;;;5059872;28;20067;-88
2023/10/03 13:20:28;;;;;;;5.10;3.15;;;;;;;;;;5064637;28;20047;-84
2023/10/03 13:22:57;;;;;;;3.67;2.83;;;;;;;;;;5064304;28;20040;-84
2023/10/03 13:25:24;;;;;;;6.78;2.63;;;;;;;;;;5064925;28;20641;-84
2023/10/03 13:27:52;;;;;;;7.18;3.25;;;;;;;;;;5069878;28;20047;-83
2023/10/03 13:30:18;;;;;;;4.90;3.08;;;;;;;;;;5073149;28;20029;-83
2023/10/03 13:32:51;;;;;;;6.95;2.90;;;;;;;;;;5065268;28;20021;-86
2023/10/03 13:35:17;;;;;;;3.63;2.58;;;;;;;;;;5069105;28;20044;-86
2023/10/03 13:37:43;;;;;;;6.22;3.10;;;;;;;;;;5070231;28;20025;-87
2023/10/03 13:40:12;;;;;;;4.57;2.78;;;;;;;;;;5065465;28;20087;-85
2023/10/03 13:42:38;;;;;;;8.27;3.00;;;;;;;;;;5058079;28;20468;-84
2023/10/03 13:45:05;;;;;;;5.32;2.90;;;;;;;;;;5060735;28;20033;-86
2023/10/03 13:47:31;;;;;;;5.22;3.13;;;;;;;;;;5060502;28;20423;-83
2023/10/03 13:49:56;;;;;;;5.22;2.75;;;;;;;;;;5063527;28;20040;-85
2023/10/03 13:52:22;;;;;;;3.55;2.45;;;;;;;;;;5066667;28;20033;-86
2023/10/03 14:06:41;;;;;;;4.22;2.40;;;;;;;;;;5017378;28;20119;-84
2023/10/03 14:09:32;;;;;;;2.33;1.77;;;;;;;;;;5001590;28;20078;-83
2023/10/03 14:12:13;;;;;;;6.22;2.80;;;;;;;;;;5019811;28;20042;-85
2023/10/03 14:14:38;;;;;;;3.13;2.23;;;;;;;;;;5051776;28;20447;-84
2023/10/03 14:17:04;;;;;;;7.15;2.58;;;;;;;;;;5058567;28;20489;-85
2023/10/03 14:19:34;;;;;;;4.97;2.33;;;;;;;;;;5066415;28;20009;-85
2023/10/03 14:22:02;;;;;;;5.68;2.22;;;;;;;;;;5066978;28;20044;-83
2023/10/03 14:24:29;;;;;;;3.65;2.28;;;;;;;;;;5070388;28;20046;-84
2023/10/03 14:26:54;;;;;;;3.58;1.90;;;;;;;;;;5059952;28;20032;-85
2023/10/03 14:42:07;;;;;;;7.88;2.28;;;;;;;;;;4950079;28;20061;-88
2023/10/03 14:44:40;;;;;;;3.65;1.88;;;;;;;;;;4947061;28;20036;-85
2023/10/03 14:47:05;;;;;;;4.45;2.05;;;;;;;;;;4964949;28;20033;-86
2023/10/03 14:49:32;;;;;;;4.80;2.17;;;;;;;;;;4944846;28;20027;-87
2023/10/03 14:51:57;;;;;;;2.88;2.03;;;;;;;;;;4940667;28;20031;-86
2023/10/03 14:54:22;;;;;;;3.35;1.77;;;;;;;;;;4941748;28;20043;-87
2023/10/03 14:56:48;;;;;;;3.53;2.13;;;;;;;;;;4946560;28;20027;-87
2023/10/03 14:59:14;;;;;;;3.67;2.17;;;;;;;;;;4945500;28;20031;-86
2023/10/03 15:01:41;;;;;;;3.33;1.70;;;;;;;;;;4939579;28;20031;-86
2023/10/03 15:07:40;;;;;;;2.20;1.88;;;;;;;;;;4874303;28;20054;-88
2023/10/03 15:10:07;;;;;;;4.05;1.75;;;;;;;;;;4944523;28;20035;-87
2023/10/03 15:12:40;;;;;;;5.88;2.03;;;;;;;;;;4939253;28;20032;-86
2023/10/03 15:15:06;;;;;;;4.45;2.15;;;;;;;;;;4945533;29;20031;-86
2023/10/03 15:17:35;;;;;;;3.25;1.95;;;;;;;;;;4943732;28;20435;-88
2023/10/03 15:20:05;;;;;;;3.83;2.15;;;;;;;;;;4945869;28;20519;-86
2023/10/03 15:22:31;;;;;;;1.95;1.60;;;;;;;;;;4956522;28;20663;-86